PWSweather.com
Personal Weather Stations
Station Observations
133525
French Quarters West Seneca , West Seneca, NY 14224

French Quarters West Seneca West Seneca, NY 14224

Lat: 42.850058, Lon: -78.799754

Elevation: 603

Station Type: Davis Vantage Vue pro2

http://westsenecaweather.com/

Latest ConditionsUpdated 2:15:01 PM EST Tuesday, Nov 12, 2019
Currently Today's Max Today's Min Today's Average
Temperature 21.7°F-5.7°C 24.8°F-4.0°C 21.2°F-6.0°C 22.4°F-5.3°C
Dew Point 15.6°F-9.1°C 23.8°F-4.6°C 15.3°F-9.3°C 20.4°F-6.4°C
Winds 1.2 mph ESE1.9 kmh ESE 8.1 mph -13.0 kmh - - 3.0 mph 4.8 kmh
Wind Gusts 4.6 mph7.4 kmh 13.8 mph22.2 kmh - -
Humidity 77% 96% 76% 92%
Pressure 30.20 in1022.7 mb 30.20 in1022.7 mb 29.97 in1014.9 mb -
Hour Temp Dew Point Humidity Winds Wind Gusts Pressure Precip Precip Rate Daily Precip Total
02:15 PM 21.7°F-5.7°C 15.6°F-9.1°C 77% 1.2 mph ESE1.9 kmh ESE 4.6 mph7.4 kmh 30.20 in1022.7 mb - 0.00 in0.0 mm 0.00 in0.0 mm
02:10 PM 21.7°F-5.7°C 15.3°F-9.3°C 76% 2.3 mph SE3.7 kmh SE 6.9 mph11.1 kmh 30.20 in1022.7 mb - 0.00 in0.0 mm 0.00 in0.0 mm
02:00 PM 21.6°F-5.8°C 15.8°F-9.0°C 78% 2.3 mph ENE3.7 kmh ENE 5.8 mph9.3 kmh 30.20 in1022.7 mb - 0.00 in0.0 mm 0.00 in0.0 mm
01:55 PM 21.5°F-5.8°C 15.7°F-9.1°C 78% 5.8 mph E9.3 kmh E 9.2 mph14.8 kmh 30.20 in1022.7 mb - 0.00 in0.0 mm 0.00 in0.0 mm
01:50 PM 21.6°F-5.8°C 16.1°F-8.8°C 79% 2.3 mph E3.7 kmh E 4.6 mph7.4 kmh 30.20 in1022.7 mb - 0.00 in0.0 mm 0.00 in0.0 mm
01:45 PM 21.6°F-5.8°C 16.1°F-8.8°C 79% 3.5 mph ESE5.6 kmh ESE 6.9 mph11.1 kmh 30.20 in1022.7 mb - 0.00 in0.0 mm 0.00 in0.0 mm
01:40 PM 21.6°F-5.8°C 15.8°F-9.0°C 78% Calm Calm 3.5 mph5.6 kmh 30.20 in1022.7 mb - 0.00 in0.0 mm 0.00 in0.0 mm
01:35 PM 21.8°F-5.7°C 16.0°F-8.9°C 78% 5.8 mph E9.3 kmh E 10.4 mph16.7 kmh 30.19 in1022.4 mb - 0.00 in0.0 mm 0.00 in0.0 mm
01:30 PM 21.5°F-5.8°C 16.0°F-8.9°C 79% 6.9 mph E11.1 kmh E 11.5 mph18.5 kmh 30.19 in1022.4 mb - 0.00 in0.0 mm 0.00 in0.0 mm
01:25 PM 21.4°F-5.9°C 16.4°F-8.7°C 81% 5.8 mph SE9.3 kmh SE 9.2 mph14.8 kmh 30.19 in1022.4 mb - 0.00 in0.0 mm 0.00 in0.0 mm
01:20 PM 21.4°F-5.9°C 16.8°F-8.4°C 82% 3.5 mph SE5.6 kmh SE 9.2 mph14.8 kmh 30.19 in1022.4 mb - 0.00 in0.0 mm 0.00 in0.0 mm
01:15 PM 21.2°F-6.0°C 16.0°F-8.9°C 80% 3.5 mph E5.6 kmh E 6.9 mph11.1 kmh 30.19 in1022.4 mb - 0.00 in0.0 mm 0.00 in0.0 mm
01:10 PM 21.4°F-5.9°C 15.9°F-8.9°C 79% 6.9 mph E11.1 kmh E 10.4 mph16.7 kmh 30.19 in1022.4 mb - 0.00 in0.0 mm 0.00 in0.0 mm
01:00 PM 21.9°F-5.6°C 17.0°F-8.3°C 81% 3.5 mph E5.6 kmh E 11.5 mph18.5 kmh 30.19 in1022.4 mb - 0.00 in0.0 mm 0.00 in0.0 mm
12:55 PM 22.2°F-5.4°C 17.0°F-8.3°C 80% 5.8 mph ESE9.3 kmh ESE 10.4 mph16.7 kmh 30.19 in1022.4 mb - 0.00 in0.0 mm 0.00 in0.0 mm
12:50 PM 22.3°F-5.4°C 17.1°F-8.3°C 80% 1.2 mph ESE1.9 kmh ESE 2.3 mph3.7 kmh 30.18 in1022.0 mb - 0.00 in0.0 mm 0.00 in0.0 mm
12:45 PM 22.2°F-5.4°C 17.0°F-8.3°C 80% 5.8 mph SE9.3 kmh SE 10.4 mph16.7 kmh 30.19 in1022.4 mb - 0.00 in0.0 mm 0.00 in0.0 mm
12:40 PM 22.3°F-5.4°C 17.3°F-8.2°C 81% 1.2 mph ESE1.9 kmh ESE 3.5 mph5.6 kmh 30.18 in1022.0 mb - 0.00 in0.0 mm 0.00 in0.0 mm
12:35 PM 22.2°F-5.4°C 17.5°F-8.1°C 82% 5.8 mph SE9.3 kmh SE 9.2 mph14.8 kmh 30.18 in1022.0 mb - 0.00 in0.0 mm 0.00 in0.0 mm
12:30 PM 22.4°F-5.3°C 17.2°F-8.2°C 80% 6.9 mph E11.1 kmh E 13.8 mph22.2 kmh 30.18 in1022.0 mb - 0.00 in0.0 mm 0.00 in0.0 mm
12:25 PM 22.4°F-5.3°C 18.0°F-7.8°C 83% 4.6 mph E7.4 kmh E 4.6 mph7.4 kmh 30.18 in1022.0 mb - 0.00 in0.0 mm 0.00 in0.0 mm
12:20 PM 22.4°F-5.3°C 18.3°F-7.6°C 84% 2.3 mph ESE3.7 kmh ESE 3.5 mph5.6 kmh 30.18 in1022.0 mb - 0.00 in0.0 mm 0.00 in0.0 mm
12:15 PM 22.4°F-5.3°C 18.3°F-7.6°C 84% 4.6 mph E7.4 kmh E 6.9 mph11.1 kmh 30.18 in1022.0 mb - 0.00 in0.0 mm 0.00 in0.0 mm
12:10 PM 22.3°F-5.4°C 18.2°F-7.7°C 84% 2.3 mph ESE3.7 kmh ESE 5.8 mph9.3 kmh 30.18 in1022.0 mb - 0.00 in0.0 mm 0.00 in0.0 mm
12:00 PM 22.4°F-5.3°C 18.8°F-7.3°C 86% 5.8 mph SE9.3 kmh SE 11.5 mph18.5 kmh 30.18 in1022.0 mb - 0.00 in0.0 mm 0.00 in0.0 mm
11:55 AM 22.6°F-5.2°C 19.3°F-7.1°C 87% 1.2 mph ESE1.9 kmh ESE 11.5 mph18.5 kmh 30.17 in1021.7 mb - 0.00 in0.0 mm 0.00 in0.0 mm
11:50 AM 22.3°F-5.4°C 19.0°F-7.2°C 87% 6.9 mph ESE11.1 kmh ESE 9.2 mph14.8 kmh 30.17 in1021.7 mb - 0.00 in0.0 mm 0.00 in0.0 mm
11:45 AM 22.2°F-5.4°C 18.6°F-7.4°C 86% 3.5 mph SE5.6 kmh SE 6.9 mph11.1 kmh 30.17 in1021.7 mb - 0.00 in0.0 mm 0.00 in0.0 mm
11:40 AM 22.0°F-5.6°C 18.5°F-7.5°C 86% 3.5 mph ESE5.6 kmh ESE 4.6 mph7.4 kmh 30.17 in1021.7 mb - 0.00 in0.0 mm 0.00 in0.0 mm
11:35 AM 21.9°F-5.6°C 18.4°F-7.6°C 86% 2.3 mph E3.7 kmh E 10.4 mph16.7 kmh 30.17 in1021.7 mb - 0.00 in0.0 mm 0.00 in0.0 mm
11:30 AM 21.8°F-5.7°C 18.3°F-7.6°C 86% 6.9 mph ESE11.1 kmh ESE 11.5 mph18.5 kmh 30.17 in1021.7 mb - 0.00 in0.0 mm 0.00 in0.0 mm
11:25 AM 21.6°F-5.8°C 18.1°F-7.7°C 86% 5.8 mph E9.3 kmh E 9.2 mph14.8 kmh 30.17 in1021.7 mb - 0.00 in0.0 mm 0.00 in0.0 mm
11:20 AM 21.7°F-5.7°C 18.7°F-7.4°C 88% 6.9 mph ESE11.1 kmh ESE 10.4 mph16.7 kmh 30.17 in1021.7 mb - 0.00 in0.0 mm 0.00 in0.0 mm
11:15 AM 21.7°F-5.7°C 19.2°F-7.1°C 90% 6.9 mph SE11.1 kmh SE 8.1 mph13.0 kmh 30.17 in1021.7 mb - 0.00 in0.0 mm 0.00 in0.0 mm
11:10 AM 21.6°F-5.8°C 19.1°F-7.2°C 90% 6.9 mph ESE11.1 kmh ESE 10.4 mph16.7 kmh 30.17 in1021.7 mb - 0.00 in0.0 mm 0.00 in0.0 mm
11:00 AM 21.5°F-5.8°C 19.0°F-7.2°C 90% 8.1 mph SE13.0 kmh SE 10.4 mph16.7 kmh 30.17 in1021.7 mb - 0.00 in0.0 mm 0.00 in0.0 mm
10:55 AM 21.6°F-5.8°C 19.6°F-6.9°C 92% 6.9 mph ESE11.1 kmh ESE 10.4 mph16.7 kmh 30.16 in1021.3 mb - 0.00 in0.0 mm 0.00 in0.0 mm
10:50 AM 21.4°F-5.9°C 19.5°F-6.9°C 92% 4.6 mph SE7.4 kmh SE 6.9 mph11.1 kmh 30.16 in1021.3 mb - 0.00 in0.0 mm 0.00 in0.0 mm
10:45 AM 21.2°F-6.0°C 19.2°F-7.1°C 92% 4.6 mph ESE7.4 kmh ESE 8.1 mph13.0 kmh 30.16 in1021.3 mb - 0.00 in0.0 mm 0.00 in0.0 mm
10:40 AM 21.2°F-6.0°C 19.2°F-7.1°C 92% 4.6 mph ESE7.4 kmh ESE 8.1 mph13.0 kmh 30.16 in1021.3 mb - 0.00 in0.0 mm 0.00 in0.0 mm
10:35 AM 21.5°F-5.8°C 19.8°F-6.8°C 93% 4.6 mph E7.4 kmh E 9.2 mph14.8 kmh 30.16 in1021.3 mb - 0.00 in0.0 mm 0.00 in0.0 mm
10:30 AM 21.8°F-5.7°C 20.4°F-6.4°C 94% 5.8 mph SE9.3 kmh SE 4.6 mph7.4 kmh 30.16 in1021.3 mb - 0.00 in0.0 mm 0.00 in0.0 mm
10:25 AM 22.0°F-5.6°C 20.5°F-6.4°C 94% 3.5 mph ESE5.6 kmh ESE 3.5 mph5.6 kmh 30.16 in1021.3 mb - 0.00 in0.0 mm 0.00 in0.0 mm
10:20 AM 21.8°F-5.7°C 20.3°F-6.5°C 94% 3.5 mph ESE5.6 kmh ESE 5.8 mph9.3 kmh 30.16 in1021.3 mb - 0.00 in0.0 mm 0.00 in0.0 mm
10:15 AM 21.8°F-5.7°C 20.4°F-6.4°C 94% 3.5 mph E5.6 kmh E 3.5 mph5.6 kmh 30.16 in1021.3 mb - 0.00 in0.0 mm 0.00 in0.0 mm
10:10 AM 22.0°F-5.6°C 20.6°F-6.3°C 94% 4.6 mph ESE7.4 kmh ESE 8.1 mph13.0 kmh 30.15 in1021.0 mb - 0.00 in0.0 mm 0.00 in0.0 mm
10:00 AM 22.2°F-5.4°C 20.7°F-6.3°C 94% Calm Calm -- 30.15 in1021.0 mb - 0.00 in0.0 mm 0.00 in0.0 mm
09:55 AM 22.0°F-5.6°C 20.5°F-6.4°C 94% 2.3 mph ESE3.7 kmh ESE 4.6 mph7.4 kmh 30.15 in1021.0 mb - 0.00 in0.0 mm 0.00 in0.0 mm
09:50 AM 22.0°F-5.6°C 20.5°F-6.4°C 94% 2.3 mph SE3.7 kmh SE 5.8 mph9.3 kmh 30.15 in1021.0 mb - 0.00 in0.0 mm 0.00 in0.0 mm
09:45 AM 22.0°F-5.6°C 20.5°F-6.4°C 94% 1.2 mph SE1.9 kmh SE 2.3 mph3.7 kmh 30.15 in1021.0 mb - 0.00 in0.0 mm 0.00 in0.0 mm
09:40 AM 22.1°F-5.5°C 20.6°F-6.3°C 94% 2.3 mph SE3.7 kmh SE 5.8 mph9.3 kmh 30.15 in1021.0 mb - 0.00 in0.0 mm 0.00 in0.0 mm
09:35 AM 22.1°F-5.5°C 20.6°F-6.3°C 94% Calm Calm -- 30.14 in1020.7 mb - 0.00 in0.0 mm 0.00 in0.0 mm
09:30 AM 22.0°F-5.6°C 20.5°F-6.4°C 94% 1.2 mph SE1.9 kmh SE 3.5 mph5.6 kmh 30.14 in1020.7 mb - 0.00 in0.0 mm 0.00 in0.0 mm
09:25 AM 21.8°F-5.7°C 20.3°F-6.5°C 94% 3.5 mph E5.6 kmh E 4.6 mph7.4 kmh 30.14 in1020.7 mb - 0.00 in0.0 mm 0.00 in0.0 mm
09:20 AM 21.7°F-5.7°C 20.3°F-6.5°C 94% Calm Calm 2.3 mph3.7 kmh 30.14 in1020.7 mb - 0.00 in0.0 mm 0.00 in0.0 mm
09:15 AM 21.7°F-5.7°C 20.2°F-6.6°C 94% 4.6 mph ESE7.4 kmh ESE 6.9 mph11.1 kmh 30.14 in1020.7 mb - 0.00 in0.0 mm 0.00 in0.0 mm
09:10 AM 21.6°F-5.8°C 20.1°F-6.6°C 94% Calm Calm 5.8 mph9.3 kmh 30.13 in1020.3 mb - 0.00 in0.0 mm 0.00 in0.0 mm
09:00 AM 21.6°F-5.8°C 20.1°F-6.6°C 94% 3.5 mph ESE5.6 kmh ESE 3.5 mph5.6 kmh 30.14 in1020.7 mb - 0.00 in0.0 mm 0.00 in0.0 mm
08:55 AM 21.7°F-5.7°C 20.2°F-6.6°C 94% 2.3 mph E3.7 kmh E 4.6 mph7.4 kmh 30.14 in1020.7 mb - 0.00 in0.0 mm 0.00 in0.0 mm
08:50 AM 21.7°F-5.7°C 20.3°F-6.5°C 94% 1.2 mph E1.9 kmh E 5.8 mph9.3 kmh 30.14 in1020.7 mb - 0.00 in0.0 mm 0.00 in0.0 mm
08:45 AM 21.6°F-5.8°C 20.1°F-6.6°C 94% Calm Calm -- 30.14 in1020.7 mb - 0.00 in0.0 mm 0.00 in0.0 mm
08:40 AM 21.5°F-5.8°C 20.0°F-6.7°C 94% 2.3 mph ESE3.7 kmh ESE 4.6 mph7.4 kmh 30.13 in1020.3 mb - 0.00 in0.0 mm 0.00 in0.0 mm
08:35 AM 21.5°F-5.8°C 20.0°F-6.7°C 94% Calm Calm -- 30.13 in1020.3 mb - 0.00 in0.0 mm 0.00 in0.0 mm
08:30 AM 21.4°F-5.9°C 19.9°F-6.7°C 94% 1.2 mph ESE1.9 kmh ESE 2.3 mph3.7 kmh 30.13 in1020.3 mb - 0.00 in0.0 mm 0.00 in0.0 mm
08:25 AM 21.4°F-5.9°C 19.9°F-6.7°C 94% 1.2 mph SE1.9 kmh SE 2.3 mph3.7 kmh 30.13 in1020.3 mb - 0.00 in0.0 mm 0.00 in0.0 mm
08:20 AM 21.4°F-5.9°C 19.9°F-6.7°C 94% 2.3 mph SE3.7 kmh SE 4.6 mph7.4 kmh 30.13 in1020.3 mb - 0.00 in0.0 mm 0.00 in0.0 mm
08:15 AM 21.5°F-5.8°C 20.1°F-6.6°C 94% 4.6 mph SE7.4 kmh SE 8.1 mph13.0 kmh 30.13 in1020.3 mb - 0.00 in0.0 mm 0.00 in0.0 mm
08:10 AM 21.7°F-5.7°C 20.2°F-6.6°C 94% Calm Calm -- 30.13 in1020.3 mb - 0.00 in0.0 mm 0.00 in0.0 mm
07:55 AM 21.6°F-5.8°C 20.1°F-6.6°C 94% Calm Calm -- 30.12 in1020.0 mb - 0.00 in0.0 mm 0.00 in0.0 mm
07:50 AM 21.7°F-5.7°C 20.2°F-6.6°C 94% 4.6 mph ESE7.4 kmh ESE 10.4 mph16.7 kmh 30.12 in1020.0 mb - 0.00 in0.0 mm 0.00 in0.0 mm
07:45 AM 21.7°F-5.7°C 20.2°F-6.6°C 94% 2.3 mph E3.7 kmh E 4.6 mph7.4 kmh 30.11 in1019.6 mb - 0.00 in0.0 mm 0.00 in0.0 mm
07:40 AM 21.8°F-5.7°C 20.6°F-6.3°C 95% 1.2 mph ESE1.9 kmh ESE 3.5 mph5.6 kmh 30.11 in1019.6 mb - 0.00 in0.0 mm 0.00 in0.0 mm
07:35 AM 21.8°F-5.7°C 20.6°F-6.3°C 95% Calm Calm -- 30.11 in1019.6 mb - 0.00 in0.0 mm 0.00 in0.0 mm
07:30 AM 21.7°F-5.7°C 20.2°F-6.6°C 94% Calm Calm 3.5 mph5.6 kmh 30.10 in1019.3 mb - 0.00 in0.0 mm 0.00 in0.0 mm
07:25 AM 21.7°F-5.7°C 20.2°F-6.6°C 94% Calm Calm -- 30.10 in1019.3 mb - 0.00 in0.0 mm 0.00 in0.0 mm
07:20 AM 21.6°F-5.8°C 20.1°F-6.6°C 94% 4.6 mph E7.4 kmh E 5.8 mph9.3 kmh 30.10 in1019.3 mb - 0.00 in0.0 mm 0.00 in0.0 mm
07:15 AM 21.6°F-5.8°C 20.1°F-6.6°C 94% 3.5 mph ESE5.6 kmh ESE 4.6 mph7.4 kmh 30.09 in1019.0 mb - 0.00 in0.0 mm 0.00 in0.0 mm
07:10 AM 21.7°F-5.7°C 20.2°F-6.6°C 94% 1.2 mph ESE1.9 kmh ESE 8.1 mph13.0 kmh 30.09 in1019.0 mb - 0.00 in0.0 mm 0.00 in0.0 mm
07:00 AM 21.7°F-5.7°C 20.2°F-6.6°C 94% 3.5 mph E5.6 kmh E 4.6 mph7.4 kmh 30.09 in1019.0 mb - 0.00 in0.0 mm 0.00 in0.0 mm
06:55 AM 21.7°F-5.7°C 20.2°F-6.6°C 94% 1.2 mph E1.9 kmh E 3.5 mph5.6 kmh 30.09 in1019.0 mb - 0.00 in0.0 mm 0.00 in0.0 mm
06:50 AM 21.8°F-5.7°C 20.6°F-6.3°C 95% Calm Calm 3.5 mph5.6 kmh 30.08 in1018.6 mb - 0.00 in0.0 mm 0.00 in0.0 mm
06:45 AM 21.8°F-5.7°C 20.6°F-6.3°C 95% 3.5 mph ESE5.6 kmh ESE 5.8 mph9.3 kmh 30.08 in1018.6 mb - 0.00 in0.0 mm 0.00 in0.0 mm
06:40 AM 21.9°F-5.6°C 20.7°F-6.3°C 95% 1.2 mph ENE1.9 kmh ENE 4.6 mph7.4 kmh 30.08 in1018.6 mb - 0.00 in0.0 mm 0.00 in0.0 mm
06:35 AM 21.9°F-5.6°C 20.7°F-6.3°C 95% Calm Calm -- 30.07 in1018.3 mb - 0.00 in0.0 mm 0.00 in0.0 mm
06:30 AM 22.0°F-5.6°C 20.8°F-6.2°C 95% Calm Calm -- 30.07 in1018.3 mb - 0.00 in0.0 mm 0.00 in0.0 mm
06:25 AM 22.0°F-5.6°C 20.8°F-6.2°C 95% Calm Calm -- 30.07 in1018.3 mb - 0.00 in0.0 mm 0.00 in0.0 mm
06:20 AM 22.1°F-5.5°C 20.9°F-6.2°C 95% Calm Calm -- 30.07 in1018.3 mb - 0.00 in0.0 mm 0.00 in0.0 mm
06:15 AM 22.1°F-5.5°C 20.8°F-6.2°C 95% Calm Calm -- 30.07 in1018.3 mb - 0.00 in0.0 mm 0.00 in0.0 mm
06:10 AM 22.1°F-5.5°C 20.9°F-6.2°C 95% 1.2 mph E1.9 kmh E 4.6 mph7.4 kmh 30.07 in1018.3 mb - 0.00 in0.0 mm 0.00 in0.0 mm
06:00 AM 22.2°F-5.4°C 21.0°F-6.1°C 95% 1.2 mph E1.9 kmh E 2.3 mph3.7 kmh 30.06 in1017.9 mb - 0.00 in0.0 mm 0.00 in0.0 mm
05:55 AM 22.3°F-5.4°C 21.1°F-6.1°C 95% 3.5 mph SE5.6 kmh SE 6.9 mph11.1 kmh 30.06 in1017.9 mb - 0.00 in0.0 mm 0.00 in0.0 mm
05:50 AM 22.3°F-5.4°C 21.1°F-6.1°C 95% 1.2 mph ESE1.9 kmh ESE 1.2 mph1.9 kmh 30.05 in1017.6 mb - 0.00 in0.0 mm 0.00 in0.0 mm
05:45 AM 22.4°F-5.3°C 21.2°F-6.0°C 95% 1.2 mph SE1.9 kmh SE -- 30.06 in1017.9 mb - 0.00 in0.0 mm 0.00 in0.0 mm
05:40 AM 22.4°F-5.3°C 21.2°F-6.0°C 95% 2.3 mph ESE3.7 kmh ESE 4.6 mph7.4 kmh 30.05 in1017.6 mb - 0.00 in0.0 mm 0.00 in0.0 mm
05:35 AM 22.4°F-5.3°C 21.2°F-6.0°C 95% 2.3 mph ESE3.7 kmh ESE 4.6 mph7.4 kmh 30.05 in1017.6 mb - 0.00 in0.0 mm 0.00 in0.0 mm
05:30 AM 22.4°F-5.3°C 21.2°F-6.0°C 95% 3.5 mph ESE5.6 kmh ESE 3.5 mph5.6 kmh 30.05 in1017.6 mb - 0.00 in0.0 mm 0.00 in0.0 mm
05:20 AM 22.4°F-5.3°C 21.2°F-6.0°C 95% Calm Calm -- 30.04 in1017.3 mb - 0.00 in0.0 mm 0.00 in0.0 mm
05:15 AM 22.4°F-5.3°C 21.1°F-6.1°C 95% 2.3 mph SE3.7 kmh SE 3.5 mph5.6 kmh 30.04 in1017.3 mb - 0.00 in0.0 mm 0.00 in0.0 mm
05:10 AM 22.3°F-5.4°C 21.1°F-6.1°C 95% 1.2 mph SE1.9 kmh SE 4.6 mph7.4 kmh 30.04 in1017.3 mb - 0.00 in0.0 mm 0.00 in0.0 mm
05:00 AM 22.3°F-5.4°C 21.1°F-6.1°C 95% 1.2 mph SE1.9 kmh SE 1.2 mph1.9 kmh 30.04 in1017.3 mb - 0.00 in0.0 mm 0.00 in0.0 mm
04:55 AM 22.3°F-5.4°C 21.1°F-6.1°C 95% 1.2 mph ESE1.9 kmh ESE 2.3 mph3.7 kmh 30.04 in1017.3 mb - 0.00 in0.0 mm 0.00 in0.0 mm
04:50 AM 22.3°F-5.4°C 21.1°F-6.1°C 95% 2.3 mph E3.7 kmh E 2.3 mph3.7 kmh 30.04 in1017.3 mb - 0.00 in0.0 mm 0.00 in0.0 mm
04:45 AM 22.2°F-5.4°C 21.0°F-6.1°C 95% 1.2 mph SE1.9 kmh SE 3.5 mph5.6 kmh 30.04 in1017.3 mb - 0.00 in0.0 mm 0.00 in0.0 mm
04:40 AM 22.2°F-5.4°C 21.0°F-6.1°C 95% 3.5 mph ESE5.6 kmh ESE 4.6 mph7.4 kmh 30.04 in1017.3 mb - 0.00 in0.0 mm 0.00 in0.0 mm
04:35 AM 22.2°F-5.4°C 21.0°F-6.1°C 95% 1.2 mph E1.9 kmh E 1.2 mph1.9 kmh 30.03 in1016.9 mb - 0.00 in0.0 mm 0.00 in0.0 mm
04:30 AM 22.1°F-5.5°C 20.9°F-6.2°C 95% 1.2 mph SE1.9 kmh SE 2.3 mph3.7 kmh 30.03 in1016.9 mb - 0.00 in0.0 mm 0.00 in0.0 mm
04:25 AM 22.2°F-5.4°C 21.0°F-6.1°C 95% 1.2 mph SE1.9 kmh SE 4.6 mph7.4 kmh 30.03 in1016.9 mb - 0.00 in0.0 mm 0.00 in0.0 mm
04:20 AM 22.2°F-5.4°C 21.0°F-6.1°C 95% Calm Calm 3.5 mph5.6 kmh 30.03 in1016.9 mb - 0.00 in0.0 mm 0.00 in0.0 mm
04:15 AM 22.2°F-5.4°C 21.0°F-6.1°C 95% Calm Calm 1.2 mph1.9 kmh 30.03 in1016.9 mb - 0.00 in0.0 mm 0.00 in0.0 mm
04:10 AM 22.3°F-5.4°C 21.1°F-6.1°C 95% 3.5 mph SE5.6 kmh SE 4.6 mph7.4 kmh 30.03 in1016.9 mb - 0.00 in0.0 mm 0.00 in0.0 mm
04:00 AM 22.3°F-5.4°C 21.1°F-6.1°C 95% 1.2 mph SE1.9 kmh SE 3.5 mph5.6 kmh 30.02 in1016.6 mb - 0.00 in0.0 mm 0.00 in0.0 mm
03:55 AM 22.3°F-5.4°C 21.1°F-6.1°C 95% Calm Calm 3.5 mph5.6 kmh 30.02 in1016.6 mb - 0.00 in0.0 mm 0.00 in0.0 mm
03:50 AM 22.3°F-5.4°C 21.1°F-6.1°C 95% 4.6 mph SE7.4 kmh SE 6.9 mph11.1 kmh 30.02 in1016.6 mb - 0.00 in0.0 mm 0.00 in0.0 mm
03:45 AM 22.4°F-5.3°C 21.2°F-6.0°C 95% 1.2 mph SE1.9 kmh SE 3.5 mph5.6 kmh 30.02 in1016.6 mb - 0.00 in0.0 mm 0.00 in0.0 mm
03:40 AM 22.4°F-5.3°C 21.2°F-6.0°C 95% 3.5 mph SE5.6 kmh SE 3.5 mph5.6 kmh 30.02 in1016.6 mb - 0.00 in0.0 mm 0.00 in0.0 mm
03:35 AM 22.5°F-5.3°C 21.3°F-5.9°C 95% 2.3 mph SE3.7 kmh SE 4.6 mph7.4 kmh 30.02 in1016.6 mb - 0.00 in0.0 mm 0.00 in0.0 mm
03:30 AM 22.5°F-5.3°C 21.3°F-5.9°C 95% 3.5 mph SE5.6 kmh SE 3.5 mph5.6 kmh 30.02 in1016.6 mb - 0.00 in0.0 mm 0.00 in0.0 mm
03:25 AM 22.7°F-5.2°C 21.5°F-5.8°C 95% 3.5 mph SE5.6 kmh SE 3.5 mph5.6 kmh 30.02 in1016.6 mb - 0.00 in0.0 mm 0.00 in0.0 mm
03:20 AM 22.7°F-5.2°C 21.5°F-5.8°C 95% 2.3 mph ESE3.7 kmh ESE 5.8 mph9.3 kmh 30.02 in1016.6 mb - 0.00 in0.0 mm 0.00 in0.0 mm
03:15 AM 22.7°F-5.2°C 21.5°F-5.8°C 95% 3.5 mph SE5.6 kmh SE 5.8 mph9.3 kmh 30.02 in1016.6 mb - 0.00 in0.0 mm 0.00 in0.0 mm
03:10 AM 22.8°F-5.1°C 21.6°F-5.8°C 95% 5.8 mph SE9.3 kmh SE 5.8 mph9.3 kmh 30.02 in1016.6 mb - 0.00 in0.0 mm 0.00 in0.0 mm
03:00 AM 23.0°F-5.0°C 21.8°F-5.7°C 95% 1.2 mph SE1.9 kmh SE 3.5 mph5.6 kmh 30.01 in1016.3 mb - 0.00 in0.0 mm 0.00 in0.0 mm
02:55 AM 23.0°F-5.0°C 21.8°F-5.7°C 95% 3.5 mph ESE5.6 kmh ESE 6.9 mph11.1 kmh 30.01 in1016.3 mb - 0.00 in0.0 mm 0.00 in0.0 mm
02:50 AM 23.0°F-5.0°C 21.7°F-5.7°C 95% 3.5 mph ESE5.6 kmh ESE 5.8 mph9.3 kmh 30.00 in1015.9 mb - 0.00 in0.0 mm 0.00 in0.0 mm
02:45 AM 22.9°F-5.1°C 21.7°F-5.7°C 95% 2.3 mph SE3.7 kmh SE 5.8 mph9.3 kmh 30.00 in1015.9 mb - 0.00 in0.0 mm 0.00 in0.0 mm
02:40 AM 22.9°F-5.1°C 21.7°F-5.7°C 95% 4.6 mph SE7.4 kmh SE 6.9 mph11.1 kmh 30.00 in1015.9 mb - 0.00 in0.0 mm 0.00 in0.0 mm
02:35 AM 23.1°F-4.9°C 21.9°F-5.6°C 95% 3.5 mph SE5.6 kmh SE 6.9 mph11.1 kmh 30.00 in1015.9 mb - 0.00 in0.0 mm 0.00 in0.0 mm
02:30 AM 23.3°F-4.8°C 22.1°F-5.5°C 95% 3.5 mph SE5.6 kmh SE 8.1 mph13.0 kmh 30.00 in1015.9 mb - 0.00 in0.0 mm 0.00 in0.0 mm
02:25 AM 23.5°F-4.7°C 22.3°F-5.4°C 95% 4.6 mph SE7.4 kmh SE 9.2 mph14.8 kmh 30.00 in1015.9 mb - 0.00 in0.0 mm 0.00 in0.0 mm
02:20 AM 23.5°F-4.7°C 22.3°F-5.4°C 95% 2.3 mph SE3.7 kmh SE 4.6 mph7.4 kmh 30.00 in1015.9 mb - 0.00 in0.0 mm 0.00 in0.0 mm
02:15 AM 23.5°F-4.7°C 22.3°F-5.4°C 95% 2.3 mph SE3.7 kmh SE 3.5 mph5.6 kmh 29.99 in1015.6 mb - 0.00 in0.0 mm 0.00 in0.0 mm
02:10 AM 23.6°F-4.7°C 22.4°F-5.3°C 95% 6.9 mph SE11.1 kmh SE 8.1 mph13.0 kmh 29.99 in1015.6 mb - 0.00 in0.0 mm 0.00 in0.0 mm
02:00 AM 23.8°F-4.6°C 22.6°F-5.2°C 95% 4.6 mph SE7.4 kmh SE 8.1 mph13.0 kmh 29.99 in1015.6 mb - 0.00 in0.0 mm 0.00 in0.0 mm
01:55 AM 23.9°F-4.5°C 22.7°F-5.2°C 95% 4.6 mph SE7.4 kmh SE 11.5 mph18.5 kmh 30.00 in1015.9 mb - 0.00 in0.0 mm 0.00 in0.0 mm
01:50 AM 24.0°F-4.4°C 23.0°F-5.0°C 96% 4.6 mph SE7.4 kmh SE 6.9 mph11.1 kmh 29.99 in1015.6 mb - 0.00 in0.0 mm 0.00 in0.0 mm
01:45 AM 24.2°F-4.3°C 23.2°F-4.9°C 96% 2.3 mph SE3.7 kmh SE 3.5 mph5.6 kmh 29.99 in1015.6 mb - 0.00 in0.0 mm 0.00 in0.0 mm
01:40 AM 24.2°F-4.3°C 23.2°F-4.9°C 96% 2.3 mph ESE3.7 kmh ESE 3.5 mph5.6 kmh 29.99 in1015.6 mb - 0.00 in0.0 mm 0.00 in0.0 mm
01:35 AM 24.3°F-4.3°C 23.3°F-4.8°C 96% 2.3 mph E3.7 kmh E 4.6 mph7.4 kmh 29.99 in1015.6 mb - 0.00 in0.0 mm 0.00 in0.0 mm
01:30 AM 24.3°F-4.3°C 23.3°F-4.8°C 96% 4.6 mph SE7.4 kmh SE 8.1 mph13.0 kmh 29.99 in1015.6 mb - 0.00 in0.0 mm 0.00 in0.0 mm
01:25 AM 24.4°F-4.2°C 23.2°F-4.9°C 95% 3.5 mph SE5.6 kmh SE 6.9 mph11.1 kmh 29.99 in1015.6 mb - 0.00 in0.0 mm 0.00 in0.0 mm
01:20 AM 24.4°F-4.2°C 23.2°F-4.9°C 95% Calm Calm -- 29.99 in1015.6 mb - 0.00 in0.0 mm 0.00 in0.0 mm
01:15 AM 24.4°F-4.2°C 23.4°F-4.8°C 96% 1.2 mph SE1.9 kmh SE 2.3 mph3.7 kmh 29.98 in1015.2 mb - 0.00 in0.0 mm 0.00 in0.0 mm
01:10 AM 24.4°F-4.2°C 23.2°F-4.9°C 95% 4.6 mph SE7.4 kmh SE 8.1 mph13.0 kmh 29.98 in1015.2 mb - 0.00 in0.0 mm 0.00 in0.0 mm
01:00 AM 24.4°F-4.2°C 23.4°F-4.8°C 96% 3.5 mph SE5.6 kmh SE 4.6 mph7.4 kmh 29.98 in1015.2 mb - 0.00 in0.0 mm 0.00 in0.0 mm
12:55 AM 24.3°F-4.3°C 23.3°F-4.8°C 96% 3.5 mph SSE5.6 kmh SSE 6.9 mph11.1 kmh 29.98 in1015.2 mb - 0.00 in0.0 mm 0.00 in0.0 mm
12:50 AM 24.3°F-4.3°C 23.3°F-4.8°C 96% 2.3 mph SSE3.7 kmh SSE 3.5 mph5.6 kmh 29.98 in1015.2 mb - 0.00 in0.0 mm 0.00 in0.0 mm
12:45 AM 24.4°F-4.2°C 23.2°F-4.9°C 95% 6.9 mph SE11.1 kmh SE 13.8 mph22.2 kmh 29.98 in1015.2 mb - 0.00 in0.0 mm 0.00 in0.0 mm
12:40 AM 24.5°F-4.2°C 23.3°F-4.8°C 95% 4.6 mph SE7.4 kmh SE 9.2 mph14.8 kmh 29.98 in1015.2 mb - 0.00 in0.0 mm 0.00 in0.0 mm
12:35 AM 24.5°F-4.2°C 23.3°F-4.8°C 95% 4.6 mph SE7.4 kmh SE 5.8 mph9.3 kmh 29.98 in1015.2 mb - 0.00 in0.0 mm 0.00 in0.0 mm
12:30 AM 24.6°F-4.1°C 23.4°F-4.8°C 95% 3.5 mph SE5.6 kmh SE 3.5 mph5.6 kmh 29.98 in1015.2 mb - 0.00 in0.0 mm 0.00 in0.0 mm
12:25 AM 24.7°F-4.1°C 23.5°F-4.7°C 95% 6.9 mph SE11.1 kmh SE 9.2 mph14.8 kmh 29.98 in1015.2 mb - 0.00 in0.0 mm 0.00 in0.0 mm
12:20 AM 24.8°F-4.0°C 23.8°F-4.6°C 96% 4.6 mph SE7.4 kmh SE 6.9 mph11.1 kmh 29.98 in1015.2 mb - 0.00 in0.0 mm 0.00 in0.0 mm
12:15 AM 24.7°F-4.1°C 23.7°F-4.6°C 96% 2.3 mph SSE3.7 kmh SSE 4.6 mph7.4 kmh 29.99 in1015.6 mb - 0.00 in0.0 mm 0.00 in0.0 mm
12:10 AM 24.7°F-4.1°C 23.7°F-4.6°C 96% 4.6 mph SE7.4 kmh SE 5.8 mph9.3 kmh 29.98 in1015.2 mb - 0.00 in0.0 mm 0.00 in0.0 mm
12:00 AM 24.7°F-4.1°C 23.5°F-4.7°C 95% 5.8 mph SE9.3 kmh SE 9.2 mph14.8 kmh 29.97 in1014.9 mb - 0.00 in0.0 mm 0.00 in0.0 mm